EAG5508 SBGR-SBRF
Flight info
| Callsign | EAG5508 |
|---|---|
| Flight time | 2h 25m |
| Altitude | 41000 |
| Route | VUMEV UZ14 AKPAS DCT ANBEX |
| Aircraft | A359/H-SDE2E3GHIJ3J4J5LM1ORWXY/LB1D1 |
Departure
| Time | 2026-05-07 20:34 |
|---|---|
| Airport | São Paulo/Guarulhos–Governor André Franco Montoro International Airport (SBGR) |
Arrival
| Time | 2026-05-07 22:59 |
|---|---|
| Airport | Recife/Guararapes - Gilberto Freyre International Airport (SBRF) |
| Time | Latitude | Longitude | Altitude | Speed | Heading |
|---|---|---|---|---|---|
| 2026-05-07 20:15 | -23.42834 | -46.47392 | 2474 ft | 0 kts | 72° |
| 2026-05-07 20:25 | -23.42836 | -46.47399 | 2474 ft | 4 kts | 72° |
| 2026-05-07 20:25 | -23.42844 | -46.47427 | 2476 ft | 4 kts | 72° |
| 2026-05-07 20:25 | -23.42852 | -46.47455 | 2479 ft | 3 kts | 73° |
| 2026-05-07 20:25 | -23.42856 | -46.47479 | 2477 ft | 4 kts | 111° |
| 2026-05-07 20:26 | -23.42840 | -46.47496 | 2475 ft | 4 kts | 162° |
| 2026-05-07 20:26 | -23.42820 | -46.47502 | 2479 ft | 1 kts | 165° |
| 2026-05-07 20:26 | -23.42817 | -46.47503 | 2478 ft | 0 kts | 165° |
| 2026-05-07 20:28 | -23.42821 | -46.47502 | 2479 ft | 5 kts | 165° |
| 2026-05-07 20:29 | -23.42882 | -46.47484 | 2474 ft | 10 kts | 165° |
| 2026-05-07 20:29 | -23.42940 | -46.47470 | 2479 ft | 3 kts | 202° |
| 2026-05-07 20:29 | -23.42949 | -46.47506 | 2474 ft | 11 kts | 258° |
| 2026-05-07 20:29 | -23.42971 | -46.47596 | 2477 ft | 13 kts | 253° |
| 2026-05-07 20:30 | -23.42998 | -46.47700 | 2477 ft | 15 kts | 255° |
| 2026-05-07 20:30 | -23.43028 | -46.47814 | 2476 ft | 16 kts | 254° |
| 2026-05-07 20:30 | -23.43062 | -46.47935 | 2475 ft | 17 kts | 252° |
| 2026-05-07 20:30 | -23.43098 | -46.48063 | 2477 ft | 18 kts | 254° |
| 2026-05-07 20:31 | -23.43135 | -46.48201 | 2475 ft | 19 kts | 255° |
| 2026-05-07 20:31 | -23.43172 | -46.48342 | 2477 ft | 20 kts | 252° |
| 2026-05-07 20:31 | -23.43262 | -46.48377 | 2477 ft | 15 kts | 163° |
| 2026-05-07 20:31 | -23.43287 | -46.48369 | 2476 ft | 0 kts | 164° |
| 2026-05-07 20:32 | -23.43288 | -46.48369 | 2476 ft | 3 kts | 164° |
| 2026-05-07 20:32 | -23.43337 | -46.48354 | 2476 ft | 9 kts | 163° |
| 2026-05-07 20:32 | -23.43397 | -46.48310 | 2476 ft | 13 kts | 123° |
| 2026-05-07 20:32 | -23.43400 | -46.48229 | 2476 ft | 0 kts | 74° |
| 2026-05-07 20:33 | -23.43393 | -46.48203 | 2476 ft | 23 kts | 74° |
| 2026-05-07 20:33 | -23.43282 | -46.47793 | 2476 ft | 88 kts | 74° |
| 2026-05-07 20:33 | -23.43059 | -46.46966 | 2478 ft | 141 kts | 74° |
| 2026-05-07 20:33 | -23.42746 | -46.45786 | 2629 ft | 174 kts | 71° |
| 2026-05-07 20:34 | -23.42423 | -46.44543 | 3235 ft | 173 kts | 70° |
| 2026-05-07 20:34 | -23.42043 | -46.43283 | 3704 ft | 183 kts | 67° |
| 2026-05-07 20:34 | -23.41608 | -46.41882 | 3954 ft | 207 kts | 68° |
| 2026-05-07 20:34 | -23.41141 | -46.40327 | 4329 ft | 222 kts | 69° |
| 2026-05-07 20:35 | -23.40671 | -46.38714 | 4872 ft | 224 kts | 69° |
| 2026-05-07 20:35 | -23.40008 | -46.37156 | 5291 ft | 232 kts | 52° |
| 2026-05-07 20:35 | -23.38854 | -46.35846 | 5548 ft | 250 kts | 36° |
| 2026-05-07 20:35 | -23.37429 | -46.34686 | 6120 ft | 259 kts | 33° |
| 2026-05-07 20:36 | -23.35938 | -46.33538 | 6791 ft | 266 kts | 32° |
| 2026-05-07 20:36 | -23.34429 | -46.32385 | 7521 ft | 270 kts | 32° |
| 2026-05-07 20:36 | -23.32885 | -46.31206 | 8380 ft | 272 kts | 32° |
| 2026-05-07 20:36 | -23.31326 | -46.30020 | 9244 ft | 275 kts | 32° |
| 2026-05-07 20:37 | -23.29751 | -46.28822 | 10085 ft | 278 kts | 32° |
| 2026-05-07 20:37 | -23.28126 | -46.27590 | 10567 ft | 295 kts | 32° |
| 2026-05-07 20:37 | -23.26383 | -46.26269 | 10852 ft | 316 kts | 33° |
| 2026-05-07 20:37 | -23.24529 | -46.24864 | 11171 ft | 334 kts | 33° |
| 2026-05-07 20:38 | -23.22594 | -46.23395 | 11704 ft | 343 kts | 33° |
| 2026-05-07 20:38 | -23.20622 | -46.21896 | 12337 ft | 348 kts | 34° |
| 2026-05-07 20:38 | -23.18626 | -46.20380 | 12973 ft | 352 kts | 34° |
| 2026-05-07 20:38 | -23.16603 | -46.18845 | 13609 ft | 356 kts | 34° |
| 2026-05-07 20:39 | -23.14562 | -46.17299 | 14160 ft | 360 kts | 34° |
| 2026-05-07 20:39 | -23.12526 | -46.15756 | 14679 ft | 364 kts | 34° |
| 2026-05-07 20:39 | -23.10441 | -46.14177 | 15205 ft | 367 kts | 34° |
| 2026-05-07 20:39 | -23.08334 | -46.12582 | 15733 ft | 371 kts | 34° |
| 2026-05-07 20:40 | -23.06205 | -46.10972 | 16251 ft | 375 kts | 34° |
| 2026-05-07 20:40 | -23.04052 | -46.09344 | 16762 ft | 379 kts | 34° |
| 2026-05-07 20:40 | -23.01879 | -46.07701 | 17292 ft | 382 kts | 34° |
| 2026-05-07 20:40 | -22.99686 | -46.06044 | 17807 ft | 386 kts | 34° |
| 2026-05-07 20:41 | -22.97469 | -46.04370 | 18329 ft | 390 kts | 34° |
| 2026-05-07 20:41 | -22.95230 | -46.02679 | 18759 ft | 394 kts | 34° |
| 2026-05-07 20:41 | -22.92964 | -46.00971 | 19196 ft | 399 kts | 34° |
| 2026-05-07 20:41 | -22.90674 | -45.99243 | 19631 ft | 404 kts | 33° |
| 2026-05-07 20:42 | -22.88355 | -45.97495 | 20057 ft | 408 kts | 33° |
| 2026-05-07 20:42 | -22.86038 | -45.95757 | 20501 ft | 413 kts | 33° |
| 2026-05-07 20:42 | -22.83665 | -45.93970 | 20916 ft | 418 kts | 33° |
| 2026-05-07 20:42 | -22.81260 | -45.92155 | 21360 ft | 423 kts | 33° |
| 2026-05-07 20:43 | -22.78835 | -45.90325 | 21748 ft | 428 kts | 32° |
| 2026-05-07 20:43 | -22.76371 | -45.88467 | 22174 ft | 433 kts | 32° |
| 2026-05-07 20:43 | -22.73888 | -45.86596 | 22653 ft | 437 kts | 32° |
| 2026-05-07 20:43 | -22.71377 | -45.84706 | 23056 ft | 443 kts | 32° |
| 2026-05-07 20:44 | -22.68838 | -45.82796 | 23537 ft | 446 kts | 32° |
| 2026-05-07 20:44 | -22.66279 | -45.80871 | 23909 ft | 450 kts | 32° |
| 2026-05-07 20:44 | -22.63697 | -45.78930 | 24333 ft | 453 kts | 32° |
| 2026-05-07 20:44 | -22.61133 | -45.77004 | 24738 ft | 457 kts | 33° |
| 2026-05-07 20:45 | -22.58512 | -45.75036 | 25184 ft | 460 kts | 33° |
| 2026-05-07 20:45 | -22.55867 | -45.73050 | 25634 ft | 464 kts | 33° |
| 2026-05-07 20:45 | -22.53202 | -45.71052 | 26047 ft | 468 kts | 33° |
| 2026-05-07 20:45 | -22.50515 | -45.69037 | 26484 ft | 472 kts | 33° |
| 2026-05-07 20:46 | -22.47806 | -45.67008 | 26902 ft | 476 kts | 33° |
| 2026-05-07 20:46 | -22.45075 | -45.64963 | 27320 ft | 480 kts | 33° |
| 2026-05-07 20:46 | -22.42321 | -45.62902 | 27720 ft | 483 kts | 33° |
| 2026-05-07 20:46 | -22.39585 | -45.60854 | 28131 ft | 487 kts | 33° |
| 2026-05-07 20:47 | -22.36787 | -45.58762 | 28555 ft | 491 kts | 34° |
| 2026-05-07 20:47 | -22.33970 | -45.56656 | 28947 ft | 495 kts | 33° |
| 2026-05-07 20:47 | -22.31130 | -45.54535 | 29336 ft | 498 kts | 33° |
| 2026-05-07 20:47 | -22.28270 | -45.52400 | 29734 ft | 502 kts | 33° |
| 2026-05-07 20:48 | -22.25387 | -45.50248 | 30109 ft | 506 kts | 33° |
| 2026-05-07 20:48 | -22.22480 | -45.48080 | 30447 ft | 509 kts | 33° |
| 2026-05-07 20:48 | -22.19563 | -45.45905 | 30787 ft | 512 kts | 34° |
| 2026-05-07 20:48 | -22.16625 | -45.43716 | 31103 ft | 515 kts | 34° |
| 2026-05-07 20:49 | -22.13706 | -45.41541 | 31383 ft | 518 kts | 34° |
| 2026-05-07 20:49 | -22.10729 | -45.39325 | 31686 ft | 521 kts | 34° |
| 2026-05-07 20:49 | -22.07735 | -45.37097 | 31998 ft | 524 kts | 34° |
| 2026-05-07 20:49 | -22.04730 | -45.34862 | 32319 ft | 526 kts | 34° |
| 2026-05-07 20:50 | -22.01726 | -45.32592 | 32568 ft | 530 kts | 36° |
| 2026-05-07 20:50 | -21.98785 | -45.30180 | 32843 ft | 532 kts | 38° |
| 2026-05-07 20:50 | -21.95882 | -45.27685 | 33105 ft | 535 kts | 39° |
| 2026-05-07 20:50 | -21.92982 | -45.25160 | 33353 ft | 538 kts | 39° |
| 2026-05-07 20:51 | -21.90060 | -45.22625 | 33598 ft | 541 kts | 39° |
| 2026-05-07 20:51 | -21.87154 | -45.20128 | 33839 ft | 543 kts | 39° |
| 2026-05-07 20:51 | -21.84190 | -45.17603 | 34170 ft | 542 kts | 38° |
| 2026-05-07 20:51 | -21.81234 | -45.15103 | 34571 ft | 540 kts | 38° |
| 2026-05-07 20:52 | -21.78270 | -45.12608 | 34811 ft | 541 kts | 38° |
| 2026-05-07 20:52 | -21.75298 | -45.10111 | 35043 ft | 543 kts | 38° |
| 2026-05-07 20:52 | -21.72323 | -45.07613 | 35308 ft | 543 kts | 38° |
| 2026-05-07 20:52 | -21.69340 | -45.05110 | 35561 ft | 544 kts | 38° |
| 2026-05-07 20:53 | -21.66354 | -45.02604 | 35801 ft | 545 kts | 38° |
| 2026-05-07 20:53 | -21.63368 | -45.00099 | 36050 ft | 545 kts | 38° |
| 2026-05-07 20:53 | -21.60414 | -44.97621 | 36274 ft | 546 kts | 38° |
| 2026-05-07 20:53 | -21.57419 | -44.95110 | 36514 ft | 547 kts | 38° |
| 2026-05-07 20:54 | -21.54419 | -44.92596 | 36743 ft | 547 kts | 38° |
| 2026-05-07 20:54 | -21.51415 | -44.90080 | 36954 ft | 548 kts | 38° |
| 2026-05-07 20:54 | -21.48411 | -44.87566 | 37185 ft | 548 kts | 38° |
| 2026-05-07 20:54 | -21.45401 | -44.85048 | 37395 ft | 549 kts | 38° |
| 2026-05-07 20:55 | -21.42387 | -44.82529 | 37602 ft | 549 kts | 38° |
| 2026-05-07 20:55 | -21.39372 | -44.80009 | 37853 ft | 549 kts | 38° |
| 2026-05-07 20:55 | -21.36361 | -44.77494 | 38108 ft | 549 kts | 38° |
| 2026-05-07 20:55 | -21.33384 | -44.75013 | 38289 ft | 550 kts | 38° |
| 2026-05-07 20:56 | -21.30364 | -44.72492 | 38472 ft | 550 kts | 38° |
| 2026-05-07 20:56 | -21.27341 | -44.69968 | 38643 ft | 551 kts | 38° |
| 2026-05-07 20:56 | -21.24318 | -44.67445 | 38821 ft | 551 kts | 38° |
| 2026-05-07 20:56 | -21.21298 | -44.64924 | 39039 ft | 549 kts | 38° |
| 2026-05-07 20:57 | -21.18286 | -44.62410 | 39289 ft | 547 kts | 38° |
| 2026-05-07 20:57 | -21.15287 | -44.59912 | 39515 ft | 546 kts | 38° |
| 2026-05-07 20:57 | -21.12292 | -44.57419 | 39716 ft | 545 kts | 38° |
| 2026-05-07 20:57 | -21.09302 | -44.54933 | 39912 ft | 543 kts | 38° |
| 2026-05-07 20:58 | -21.06362 | -44.52489 | 40117 ft | 542 kts | 38° |
| 2026-05-07 20:58 | -21.03387 | -44.50019 | 40296 ft | 541 kts | 38° |
| 2026-05-07 20:58 | -21.00418 | -44.47553 | 40439 ft | 541 kts | 38° |
| 2026-05-07 20:58 | -20.97447 | -44.45086 | 40583 ft | 540 kts | 38° |
| 2026-05-07 20:59 | -20.94477 | -44.42627 | 40750 ft | 539 kts | 37° |
| 2026-05-07 20:59 | -20.91520 | -44.40177 | 40914 ft | 538 kts | 38° |
| 2026-05-07 20:59 | -20.88559 | -44.37723 | 41034 ft | 538 kts | 37° |
| 2026-05-07 21:00 | -20.82670 | -44.32848 | 41071 ft | 538 kts | 38° |
| 2026-05-07 21:00 | -20.76747 | -44.27950 | 41070 ft | 538 kts | 38° |
| 2026-05-07 21:01 | -20.70825 | -44.23059 | 41069 ft | 538 kts | 38° |
| 2026-05-07 21:01 | -20.64901 | -44.18171 | 41069 ft | 538 kts | 38° |
| 2026-05-07 21:02 | -20.58990 | -44.13261 | 41073 ft | 538 kts | 38° |
| 2026-05-07 21:02 | -20.53160 | -44.08329 | 41070 ft | 538 kts | 38° |
| 2026-05-07 21:03 | -20.47283 | -44.03383 | 41077 ft | 538 kts | 38° |
| 2026-05-07 21:03 | -20.41342 | -43.98524 | 41075 ft | 538 kts | 37° |
| 2026-05-07 21:04 | -20.35389 | -43.93686 | 41077 ft | 538 kts | 38° |
| 2026-05-07 21:04 | -20.29485 | -43.88876 | 41072 ft | 538 kts | 38° |
| 2026-05-07 21:05 | -20.23555 | -43.84037 | 41083 ft | 538 kts | 38° |
| 2026-05-07 21:05 | -20.17614 | -43.79191 | 41084 ft | 538 kts | 38° |
| 2026-05-07 21:06 | -20.11675 | -43.74353 | 41090 ft | 538 kts | 38° |
| 2026-05-07 21:06 | -20.05728 | -43.69514 | 41089 ft | 538 kts | 38° |
| 2026-05-07 21:07 | -19.99828 | -43.64718 | 41085 ft | 537 kts | 38° |
| 2026-05-07 21:07 | -19.93889 | -43.59895 | 41077 ft | 537 kts | 38° |
| 2026-05-07 21:08 | -19.87946 | -43.55071 | 41077 ft | 537 kts | 38° |
| 2026-05-07 21:08 | -19.82016 | -43.50249 | 41071 ft | 537 kts | 38° |
| 2026-05-07 21:09 | -19.76120 | -43.45456 | 41071 ft | 537 kts | 38° |
| 2026-05-07 21:09 | -19.70185 | -43.40637 | 41073 ft | 537 kts | 38° |
| 2026-05-07 21:10 | -19.64248 | -43.35826 | 41073 ft | 537 kts | 38° |
| 2026-05-07 21:10 | -19.58316 | -43.31018 | 41073 ft | 537 kts | 38° |
| 2026-05-07 21:11 | -19.52418 | -43.26240 | 41073 ft | 537 kts | 38° |
| 2026-05-07 21:11 | -19.43515 | -43.19038 | 41069 ft | 537 kts | 38° |
| 2026-05-07 21:12 | -19.37579 | -43.14243 | 41067 ft | 536 kts | 38° |
| 2026-05-07 21:12 | -19.31648 | -43.09455 | 41065 ft | 536 kts | 38° |
| 2026-05-07 21:13 | -19.25756 | -43.04705 | 41064 ft | 536 kts | 38° |
| 2026-05-07 21:13 | -19.19828 | -42.99930 | 41065 ft | 536 kts | 38° |
| 2026-05-07 21:14 | -19.13894 | -42.95152 | 41066 ft | 536 kts | 38° |
| 2026-05-07 21:14 | -19.07961 | -42.90382 | 41069 ft | 536 kts | 38° |
| 2026-05-07 21:15 | -19.02059 | -42.85643 | 41067 ft | 536 kts | 38° |
| 2026-05-07 21:15 | -18.96118 | -42.80876 | 41071 ft | 536 kts | 38° |
| 2026-05-07 21:16 | -18.90171 | -42.76111 | 41065 ft | 537 kts | 38° |
| 2026-05-07 21:16 | -18.84224 | -42.71348 | 41071 ft | 536 kts | 38° |
| 2026-05-07 21:17 | -18.78278 | -42.66589 | 41070 ft | 537 kts | 38° |
| 2026-05-07 21:17 | -18.72365 | -42.61861 | 41069 ft | 537 kts | 38° |
| 2026-05-07 21:18 | -18.66411 | -42.57105 | 41070 ft | 537 kts | 38° |
| 2026-05-07 21:18 | -18.60451 | -42.52346 | 41068 ft | 537 kts | 38° |
| 2026-05-07 21:19 | -18.54530 | -42.47627 | 41064 ft | 537 kts | 38° |
| 2026-05-07 21:19 | -18.48569 | -42.42879 | 41052 ft | 537 kts | 38° |
| 2026-05-07 21:20 | -18.42610 | -42.38136 | 41060 ft | 537 kts | 38° |
| 2026-05-07 21:20 | -18.36646 | -42.33393 | 41050 ft | 538 kts | 38° |
| 2026-05-07 21:21 | -18.30719 | -42.28684 | 41050 ft | 537 kts | 38° |
| 2026-05-07 21:21 | -18.24750 | -42.23946 | 41046 ft | 537 kts | 38° |
| 2026-05-07 21:22 | -18.18782 | -42.19214 | 41056 ft | 537 kts | 38° |
| 2026-05-07 21:22 | -18.12817 | -42.14488 | 41050 ft | 537 kts | 38° |
| 2026-05-07 21:23 | -18.06881 | -42.09791 | 41049 ft | 538 kts | 39° |
| 2026-05-07 21:23 | -18.00907 | -42.05066 | 41053 ft | 537 kts | 39° |
| 2026-05-07 21:24 | -17.94935 | -42.00347 | 41064 ft | 537 kts | 39° |
| 2026-05-07 21:24 | -17.88968 | -41.95635 | 41072 ft | 537 kts | 39° |
| 2026-05-07 21:25 | -17.83033 | -41.90954 | 41066 ft | 538 kts | 39° |
| 2026-05-07 21:25 | -17.77055 | -41.86242 | 41076 ft | 537 kts | 39° |
| 2026-05-07 21:26 | -17.71079 | -41.81536 | 41078 ft | 537 kts | 39° |
| 2026-05-07 21:26 | -17.65103 | -41.76834 | 41080 ft | 537 kts | 39° |
| 2026-05-07 21:27 | -17.59165 | -41.72165 | 41078 ft | 537 kts | 39° |
| 2026-05-07 21:27 | -17.53186 | -41.67469 | 41078 ft | 537 kts | 39° |
| 2026-05-07 21:28 | -17.47209 | -41.62779 | 41081 ft | 537 kts | 39° |
| 2026-05-07 21:28 | -17.41228 | -41.58090 | 41078 ft | 537 kts | 39° |
| 2026-05-07 21:29 | -17.35289 | -41.53438 | 41085 ft | 537 kts | 39° |
| 2026-05-07 21:29 | -17.29310 | -41.48755 | 41083 ft | 537 kts | 39° |
| 2026-05-07 21:30 | -17.23329 | -41.44074 | 41083 ft | 537 kts | 39° |
| 2026-05-07 21:30 | -17.17351 | -41.39401 | 41082 ft | 537 kts | 39° |
| 2026-05-07 21:31 | -17.11367 | -41.34727 | 41089 ft | 536 kts | 39° |
| 2026-05-07 21:31 | -17.05430 | -41.30094 | 41082 ft | 536 kts | 39° |
| 2026-05-07 21:32 | -16.99454 | -41.25433 | 41078 ft | 536 kts | 39° |
| 2026-05-07 21:32 | -16.93473 | -41.20774 | 41076 ft | 537 kts | 39° |
| 2026-05-07 21:33 | -16.87489 | -41.16115 | 41077 ft | 536 kts | 39° |
| 2026-05-07 21:33 | -16.81546 | -41.11491 | 41077 ft | 536 kts | 39° |
| 2026-05-07 21:34 | -16.75562 | -41.06839 | 41067 ft | 536 kts | 39° |
| 2026-05-07 21:34 | -16.69580 | -41.02191 | 41075 ft | 536 kts | 38° |
| 2026-05-07 21:35 | -16.63603 | -40.97553 | 41076 ft | 536 kts | 39° |
| 2026-05-07 21:35 | -16.57664 | -40.92947 | 41072 ft | 536 kts | 39° |
| 2026-05-07 21:36 | -16.51686 | -40.88316 | 41073 ft | 536 kts | 38° |
| 2026-05-07 21:36 | -16.45705 | -40.83686 | 41073 ft | 536 kts | 38° |
| 2026-05-07 21:37 | -16.39722 | -40.79057 | 41075 ft | 535 kts | 38° |
| 2026-05-07 21:37 | -16.33784 | -40.74466 | 41078 ft | 536 kts | 38° |
| 2026-05-07 21:38 | -16.27802 | -40.69845 | 41067 ft | 535 kts | 38° |
| 2026-05-07 21:38 | -16.21823 | -40.65230 | 41070 ft | 535 kts | 38° |
| 2026-05-07 21:39 | -16.15851 | -40.60625 | 41065 ft | 534 kts | 38° |
| 2026-05-07 21:39 | -16.09913 | -40.56049 | 41054 ft | 535 kts | 38° |
| 2026-05-07 21:40 | -16.03939 | -40.51449 | 41063 ft | 534 kts | 38° |
| 2026-05-07 21:40 | -15.97968 | -40.46855 | 41073 ft | 534 kts | 38° |
| 2026-05-07 21:41 | -15.93008 | -40.43038 | 41065 ft | 534 kts | 38° |
| 2026-05-07 21:41 | -15.86034 | -40.37687 | 41058 ft | 533 kts | 38° |
| 2026-05-07 21:42 | -15.80108 | -40.33146 | 41064 ft | 533 kts | 38° |
| 2026-05-07 21:42 | -15.75116 | -40.29322 | 41062 ft | 532 kts | 38° |
| 2026-05-07 21:43 | -15.69197 | -40.24790 | 41070 ft | 532 kts | 38° |
| 2026-05-07 21:43 | -15.63243 | -40.20235 | 41050 ft | 531 kts | 38° |
| 2026-05-07 21:44 | -15.56334 | -40.14957 | 41058 ft | 530 kts | 37° |
| 2026-05-07 21:44 | -15.51358 | -40.11165 | 41056 ft | 530 kts | 38° |
| 2026-05-07 21:45 | -15.45456 | -40.06668 | 41059 ft | 530 kts | 38° |
| 2026-05-07 21:45 | -15.39514 | -40.02144 | 41065 ft | 530 kts | 37° |
| 2026-05-07 21:46 | -15.33579 | -39.97628 | 41058 ft | 529 kts | 37° |
| 2026-05-07 21:46 | -15.26690 | -39.92392 | 41058 ft | 528 kts | 37° |
| 2026-05-07 21:47 | -15.21763 | -39.88650 | 41061 ft | 528 kts | 37° |
| 2026-05-07 21:47 | -15.15832 | -39.84148 | 41055 ft | 528 kts | 37° |
| 2026-05-07 21:48 | -15.09907 | -39.79654 | 41066 ft | 528 kts | 37° |
| 2026-05-07 21:48 | -15.03988 | -39.75167 | 41064 ft | 527 kts | 37° |
| 2026-05-07 21:49 | -14.98073 | -39.70688 | 41062 ft | 527 kts | 37° |
| 2026-05-07 21:49 | -14.92192 | -39.66255 | 41056 ft | 526 kts | 36° |
| 2026-05-07 21:50 | -14.86272 | -39.61800 | 41059 ft | 526 kts | 36° |
| 2026-05-07 21:50 | -14.80354 | -39.57347 | 41065 ft | 526 kts | 36° |
| 2026-05-07 21:51 | -14.74441 | -39.52901 | 41057 ft | 526 kts | 36° |
| 2026-05-07 21:51 | -14.68566 | -39.48487 | 41052 ft | 525 kts | 36° |
| 2026-05-07 21:52 | -14.62657 | -39.44049 | 41054 ft | 525 kts | 36° |
| 2026-05-07 21:52 | -14.56745 | -39.39613 | 41051 ft | 525 kts | 36° |
| 2026-05-07 21:53 | -14.50829 | -39.35176 | 41053 ft | 526 kts | 36° |
| 2026-05-07 21:53 | -14.44915 | -39.30745 | 41044 ft | 525 kts | 36° |
| 2026-05-07 21:54 | -14.39046 | -39.26349 | 41045 ft | 525 kts | 36° |
| 2026-05-07 21:54 | -14.33139 | -39.21929 | 41045 ft | 524 kts | 36° |
| 2026-05-07 21:55 | -14.27235 | -39.17513 | 41044 ft | 524 kts | 36° |
| 2026-05-07 21:55 | -14.21326 | -39.13096 | 41024 ft | 524 kts | 36° |
| 2026-05-07 21:56 | -14.15463 | -39.08717 | 41040 ft | 523 kts | 35° |
| 2026-05-07 21:56 | -14.09571 | -39.04319 | 41040 ft | 523 kts | 35° |
| 2026-05-07 21:57 | -14.03677 | -38.99923 | 41036 ft | 523 kts | 35° |
| 2026-05-07 21:57 | -13.97786 | -38.95532 | 41037 ft | 523 kts | 35° |
| 2026-05-07 21:58 | -13.91935 | -38.91173 | 41031 ft | 522 kts | 35° |
| 2026-05-07 21:58 | -13.86049 | -38.86791 | 41031 ft | 522 kts | 35° |
| 2026-05-07 21:59 | -13.80163 | -38.82411 | 41031 ft | 522 kts | 35° |
| 2026-05-07 21:59 | -13.74279 | -38.78036 | 41031 ft | 522 kts | 35° |
| 2026-05-07 22:00 | -13.68436 | -38.73694 | 41034 ft | 521 kts | 34° |
| 2026-05-07 22:00 | -13.62556 | -38.69328 | 41035 ft | 521 kts | 34° |
| 2026-05-07 22:01 | -13.56678 | -38.64965 | 41025 ft | 521 kts | 34° |
| 2026-05-07 22:01 | -13.50812 | -38.60615 | 41026 ft | 520 kts | 34° |
| 2026-05-07 22:02 | -13.44950 | -38.56269 | 41024 ft | 519 kts | 34° |
| 2026-05-07 22:02 | -13.39133 | -38.51961 | 41025 ft | 519 kts | 34° |
| 2026-05-07 22:03 | -13.33279 | -38.47627 | 41022 ft | 519 kts | 34° |
| 2026-05-07 22:03 | -13.27423 | -38.43295 | 41021 ft | 519 kts | 34° |
| 2026-05-07 22:04 | -13.21575 | -38.38970 | 41009 ft | 518 kts | 33° |
| 2026-05-07 22:04 | -13.15769 | -38.34680 | 41011 ft | 517 kts | 33° |
| 2026-05-07 22:05 | -13.09930 | -38.30367 | 41004 ft | 517 kts | 33° |
| 2026-05-07 22:05 | -13.04088 | -38.26059 | 40999 ft | 517 kts | 33° |
| 2026-05-07 22:06 | -12.98246 | -38.21750 | 40995 ft | 517 kts | 33° |
| 2026-05-07 22:06 | -12.92440 | -38.17469 | 40998 ft | 517 kts | 33° |
| 2026-05-07 22:07 | -12.86604 | -38.13170 | 41002 ft | 517 kts | 33° |
| 2026-05-07 22:07 | -12.80771 | -38.08876 | 41008 ft | 516 kts | 33° |
| 2026-05-07 22:08 | -12.74932 | -38.04580 | 41015 ft | 516 kts | 33° |
| 2026-05-07 22:08 | -12.69138 | -38.00319 | 41025 ft | 517 kts | 32° |
| 2026-05-07 22:09 | -12.63294 | -37.96025 | 41030 ft | 517 kts | 32° |
| 2026-05-07 22:09 | -12.57451 | -37.91733 | 41020 ft | 516 kts | 32° |
| 2026-05-07 22:10 | -12.51618 | -37.87451 | 41020 ft | 516 kts | 32° |
| 2026-05-07 22:10 | -12.45826 | -37.83201 | 41023 ft | 516 kts | 32° |
| 2026-05-07 22:11 | -12.39990 | -37.78922 | 41020 ft | 516 kts | 32° |
| 2026-05-07 22:11 | -12.34158 | -37.74649 | 41020 ft | 516 kts | 32° |
| 2026-05-07 22:12 | -12.28321 | -37.70374 | 41015 ft | 516 kts | 32° |
| 2026-05-07 22:12 | -12.22490 | -37.66105 | 41002 ft | 515 kts | 32° |
| 2026-05-07 22:13 | -12.16699 | -37.61869 | 41020 ft | 515 kts | 32° |
| 2026-05-07 22:13 | -12.10873 | -37.57609 | 41015 ft | 515 kts | 32° |
| 2026-05-07 22:14 | -12.05046 | -37.53350 | 41013 ft | 515 kts | 32° |
| 2026-05-07 22:14 | -11.99215 | -37.49091 | 40996 ft | 515 kts | 32° |
| 2026-05-07 22:15 | -11.93417 | -37.44881 | 41002 ft | 513 kts | 29° |
| 2026-05-07 22:15 | -11.87331 | -37.41160 | 41013 ft | 509 kts | 26° |
| 2026-05-07 22:16 | -11.81212 | -37.37531 | 41013 ft | 508 kts | 26° |
| 2026-05-07 22:16 | -11.75090 | -37.33916 | 41012 ft | 508 kts | 25° |
| 2026-05-07 22:17 | -11.69006 | -37.30327 | 41010 ft | 508 kts | 25° |
| 2026-05-07 22:17 | -11.62890 | -37.26722 | 41009 ft | 507 kts | 26° |
| 2026-05-07 22:18 | -11.53733 | -37.21329 | 41009 ft | 506 kts | 25° |
| 2026-05-07 22:19 | -11.47641 | -37.17744 | 41008 ft | 505 kts | 25° |
| 2026-05-07 22:19 | -11.41595 | -37.14188 | 40990 ft | 505 kts | 25° |
| 2026-05-07 22:20 | -11.35522 | -37.10617 | 41005 ft | 503 kts | 26° |
| 2026-05-07 22:20 | -11.29467 | -37.07059 | 41004 ft | 502 kts | 26° |
| 2026-05-07 22:21 | -11.23415 | -37.03505 | 40991 ft | 502 kts | 26° |
| 2026-05-07 22:21 | -11.17365 | -36.99953 | 40983 ft | 502 kts | 26° |
| 2026-05-07 22:22 | -11.11354 | -36.96425 | 40971 ft | 501 kts | 26° |
| 2026-05-07 22:22 | -11.05320 | -36.92886 | 40979 ft | 500 kts | 26° |
| 2026-05-07 22:23 | -10.99300 | -36.89358 | 40980 ft | 499 kts | 26° |
| 2026-05-07 22:23 | -10.93275 | -36.85827 | 40983 ft | 499 kts | 26° |
| 2026-05-07 22:24 | -10.87254 | -36.82301 | 40972 ft | 499 kts | 26° |
| 2026-05-07 22:24 | -10.81284 | -36.78806 | 40992 ft | 497 kts | 26° |
| 2026-05-07 22:25 | -10.75294 | -36.75301 | 41000 ft | 496 kts | 26° |
| 2026-05-07 22:25 | -10.69315 | -36.71804 | 40996 ft | 495 kts | 26° |
| 2026-05-07 22:26 | -10.63342 | -36.68313 | 41016 ft | 495 kts | 26° |
| 2026-05-07 22:26 | -10.57415 | -36.64850 | 41007 ft | 494 kts | 26° |
| 2026-05-07 22:27 | -10.51691 | -36.61506 | 41009 ft | 492 kts | 26° |
| 2026-05-07 22:27 | -10.45754 | -36.58040 | 41009 ft | 492 kts | 26° |
| 2026-05-07 22:28 | -10.39822 | -36.54579 | 41007 ft | 492 kts | 26° |
| 2026-05-07 22:28 | -10.33927 | -36.51140 | 41007 ft | 492 kts | 26° |
| 2026-05-07 22:29 | -10.27995 | -36.47682 | 41006 ft | 491 kts | 26° |
| 2026-05-07 22:29 | -10.22079 | -36.44234 | 41007 ft | 490 kts | 26° |
| 2026-05-07 22:30 | -10.16164 | -36.40789 | 41011 ft | 490 kts | 26° |
| 2026-05-07 22:30 | -10.10249 | -36.37344 | 41011 ft | 490 kts | 26° |
| 2026-05-07 22:31 | -10.04341 | -36.33906 | 41008 ft | 490 kts | 26° |
| 2026-05-07 22:31 | -9.98468 | -36.30489 | 41018 ft | 489 kts | 26° |
| 2026-05-07 22:32 | -9.92568 | -36.27058 | 41016 ft | 489 kts | 26° |
| 2026-05-07 22:32 | -9.86667 | -36.23628 | 41014 ft | 488 kts | 25° |
| 2026-05-07 22:33 | -9.80800 | -36.20218 | 41017 ft | 485 kts | 25° |
| 2026-05-07 22:33 | -9.77907 | -36.18538 | 40826 ft | 485 kts | 25° |
| 2026-05-07 22:33 | -9.74984 | -36.16840 | 40571 ft | 484 kts | 25° |
| 2026-05-07 22:33 | -9.72068 | -36.15147 | 40309 ft | 482 kts | 25° |
| 2026-05-07 22:34 | -9.69156 | -36.13456 | 40070 ft | 482 kts | 25° |
| 2026-05-07 22:34 | -9.66246 | -36.11768 | 39826 ft | 482 kts | 25° |
| 2026-05-07 22:34 | -9.63337 | -36.10080 | 39597 ft | 482 kts | 25° |
| 2026-05-07 22:34 | -9.60434 | -36.08395 | 39264 ft | 479 kts | 25° |
| 2026-05-07 22:35 | -9.57555 | -36.06724 | 38761 ft | 476 kts | 25° |
| 2026-05-07 22:35 | -9.54677 | -36.05055 | 38095 ft | 476 kts | 25° |
| 2026-05-07 22:35 | -9.51849 | -36.03416 | 37474 ft | 474 kts | 25° |
| 2026-05-07 22:35 | -9.48986 | -36.01757 | 36857 ft | 474 kts | 24° |
| 2026-05-07 22:36 | -9.46126 | -36.00099 | 36223 ft | 473 kts | 24° |
| 2026-05-07 22:36 | -9.43269 | -35.98444 | 35582 ft | 474 kts | 24° |
| 2026-05-07 22:36 | -9.40408 | -35.96787 | 34918 ft | 475 kts | 24° |
| 2026-05-07 22:36 | -9.37535 | -35.95124 | 34195 ft | 477 kts | 24° |
| 2026-05-07 22:37 | -9.34642 | -35.93450 | 33378 ft | 480 kts | 24° |
| 2026-05-07 22:37 | -9.31739 | -35.91769 | 32585 ft | 482 kts | 24° |
| 2026-05-07 22:37 | -9.28834 | -35.90087 | 31970 ft | 480 kts | 25° |
| 2026-05-07 22:37 | -9.25981 | -35.88434 | 31383 ft | 478 kts | 25° |
| 2026-05-07 22:38 | -9.23106 | -35.86769 | 30803 ft | 475 kts | 25° |
| 2026-05-07 22:38 | -9.20240 | -35.85109 | 30232 ft | 473 kts | 25° |
| 2026-05-07 22:38 | -9.17391 | -35.83461 | 29618 ft | 471 kts | 25° |
| 2026-05-07 22:38 | -9.14560 | -35.81823 | 29024 ft | 467 kts | 25° |
| 2026-05-07 22:39 | -9.11757 | -35.80201 | 28457 ft | 462 kts | 25° |
| 2026-05-07 22:39 | -9.08972 | -35.78591 | 27900 ft | 459 kts | 25° |
| 2026-05-07 22:39 | -9.06215 | -35.76998 | 27331 ft | 455 kts | 25° |
| 2026-05-07 22:39 | -9.03481 | -35.75410 | 26804 ft | 452 kts | 26° |
| 2026-05-07 22:40 | -9.00948 | -35.73590 | 26147 ft | 456 kts | 37° |
| 2026-05-07 22:40 | -8.98597 | -35.71428 | 25495 ft | 457 kts | 39° |
| 2026-05-07 22:40 | -8.96300 | -35.69219 | 24921 ft | 454 kts | 39° |
| 2026-05-07 22:40 | -8.94020 | -35.67025 | 24365 ft | 451 kts | 39° |
| 2026-05-07 22:41 | -8.91751 | -35.64849 | 23793 ft | 448 kts | 39° |
| 2026-05-07 22:41 | -8.89495 | -35.62691 | 23179 ft | 445 kts | 39° |
| 2026-05-07 22:41 | -8.87256 | -35.60554 | 22595 ft | 440 kts | 40° |
| 2026-05-07 22:41 | -8.85042 | -35.58441 | 22026 ft | 435 kts | 40° |
| 2026-05-07 22:42 | -8.82882 | -35.56382 | 21492 ft | 430 kts | 40° |
| 2026-05-07 22:42 | -8.80714 | -35.54317 | 20924 ft | 426 kts | 41° |
| 2026-05-07 22:42 | -8.78568 | -35.52273 | 20355 ft | 422 kts | 41° |
| 2026-05-07 22:42 | -8.76438 | -35.50245 | 19830 ft | 419 kts | 41° |
| 2026-05-07 22:43 | -8.74325 | -35.48233 | 19267 ft | 416 kts | 42° |
| 2026-05-07 22:43 | -8.72224 | -35.46234 | 18710 ft | 413 kts | 42° |
| 2026-05-07 22:43 | -8.70138 | -35.44248 | 18134 ft | 411 kts | 43° |
| 2026-05-07 22:43 | -8.68065 | -35.42275 | 17545 ft | 408 kts | 43° |
| 2026-05-07 22:44 | -8.66037 | -35.40350 | 16986 ft | 403 kts | 43° |
| 2026-05-07 22:44 | -8.64003 | -35.38420 | 16449 ft | 399 kts | 43° |
| 2026-05-07 22:44 | -8.61990 | -35.36510 | 15913 ft | 394 kts | 44° |
| 2026-05-07 22:44 | -8.60004 | -35.34625 | 15382 ft | 390 kts | 44° |
| 2026-05-07 22:45 | -8.58036 | -35.32758 | 14855 ft | 386 kts | 44° |
| 2026-05-07 22:45 | -8.56090 | -35.30913 | 14344 ft | 382 kts | 44° |
| 2026-05-07 22:45 | -8.54167 | -35.29089 | 13848 ft | 378 kts | 44° |
| 2026-05-07 22:45 | -8.52262 | -35.27283 | 13284 ft | 373 kts | 44° |
| 2026-05-07 22:46 | -8.50380 | -35.25498 | 12797 ft | 369 kts | 44° |
| 2026-05-07 22:46 | -8.48543 | -35.23757 | 12282 ft | 365 kts | 45° |
| 2026-05-07 22:46 | -8.46700 | -35.22010 | 11793 ft | 362 kts | 45° |
| 2026-05-07 22:46 | -8.44874 | -35.20279 | 11293 ft | 358 kts | 45° |
| 2026-05-07 22:47 | -8.43063 | -35.18563 | 10812 ft | 355 kts | 45° |
| 2026-05-07 22:47 | -8.41282 | -35.16881 | 10556 ft | 343 kts | 45° |
| 2026-05-07 22:47 | -8.39579 | -35.15274 | 10458 ft | 327 kts | 45° |
| 2026-05-07 22:47 | -8.37958 | -35.13742 | 10309 ft | 312 kts | 45° |
| 2026-05-07 22:48 | -8.36401 | -35.12271 | 10184 ft | 300 kts | 46° |
| 2026-05-07 22:48 | -8.34911 | -35.10863 | 10044 ft | 288 kts | 46° |
| 2026-05-07 22:48 | -8.33486 | -35.09515 | 9811 ft | 284 kts | 46° |
| 2026-05-07 22:48 | -8.32028 | -35.08134 | 9468 ft | 289 kts | 46° |
| 2026-05-07 22:49 | -8.30565 | -35.06749 | 9169 ft | 288 kts | 46° |
| 2026-05-07 22:49 | -8.29098 | -35.05371 | 8867 ft | 287 kts | 45° |
| 2026-05-07 22:49 | -8.27434 | -35.04253 | 8554 ft | 291 kts | 25° |
| 2026-05-07 22:49 | -8.25495 | -35.03659 | 8244 ft | 292 kts | 16° |
| 2026-05-07 22:50 | -8.23517 | -35.03202 | 7947 ft | 291 kts | 15° |
| 2026-05-07 22:50 | -8.21545 | -35.02755 | 7649 ft | 290 kts | 15° |
| 2026-05-07 22:50 | -8.19605 | -35.02310 | 7346 ft | 289 kts | 16° |
| 2026-05-07 22:50 | -8.17632 | -35.01954 | 7066 ft | 290 kts | 6° |
| 2026-05-07 22:51 | -8.15623 | -35.02192 | 6828 ft | 293 kts | 347° |
| 2026-05-07 22:51 | -8.13667 | -35.02774 | 6377 ft | 294 kts | 344° |
| 2026-05-07 22:51 | -8.11716 | -35.03407 | 5901 ft | 295 kts | 344° |
| 2026-05-07 22:51 | -8.09770 | -35.04034 | 5496 ft | 292 kts | 344° |
| 2026-05-07 22:52 | -8.07838 | -35.04650 | 5133 ft | 289 kts | 344° |
| 2026-05-07 22:52 | -8.05926 | -35.05256 | 4773 ft | 286 kts | 345° |
| 2026-05-07 22:52 | -8.04031 | -35.05852 | 4387 ft | 284 kts | 345° |
| 2026-05-07 22:52 | -8.02143 | -35.06424 | 4018 ft | 282 kts | 347° |
| 2026-05-07 22:53 | -8.00244 | -35.06528 | 3660 ft | 275 kts | 14° |
| 2026-05-07 22:53 | -7.98563 | -35.05723 | 3327 ft | 267 kts | 44° |
| 2026-05-07 22:53 | -7.97528 | -35.04250 | 3095 ft | 251 kts | 70° |
| 2026-05-07 22:53 | -7.96953 | -35.02642 | 3006 ft | 236 kts | 75° |
| 2026-05-07 22:54 | -7.96463 | -35.01108 | 2899 ft | 223 kts | 76° |
| 2026-05-07 22:54 | -7.96204 | -34.99624 | 2788 ft | 208 kts | 94° |
| 2026-05-07 22:54 | -7.96583 | -34.98293 | 2692 ft | 191 kts | 122° |
| 2026-05-07 22:54 | -7.97482 | -34.97392 | 2630 ft | 178 kts | 147° |
| 2026-05-07 22:55 | -7.98571 | -34.96921 | 2504 ft | 168 kts | 158° |
| 2026-05-07 22:55 | -7.99662 | -34.96588 | 2334 ft | 161 kts | 161° |
| 2026-05-07 22:55 | -8.00714 | -34.96281 | 2160 ft | 154 kts | 160° |
| 2026-05-07 22:55 | -8.01706 | -34.95911 | 1939 ft | 150 kts | 155° |
| 2026-05-07 22:56 | -8.02667 | -34.95583 | 1751 ft | 141 kts | 162° |
| 2026-05-07 22:56 | -8.03583 | -34.95304 | 1539 ft | 134 kts | 160° |
| 2026-05-07 22:56 | -8.04478 | -34.95014 | 1285 ft | 136 kts | 160° |
| 2026-05-07 22:56 | -8.05379 | -34.94722 | 1129 ft | 138 kts | 160° |
| 2026-05-07 22:57 | -8.06284 | -34.94425 | 994 ft | 135 kts | 159° |
| 2026-05-07 22:57 | -8.07152 | -34.94113 | 849 ft | 135 kts | 158° |
| 2026-05-07 22:57 | -8.08042 | -34.93800 | 707 ft | 136 kts | 164° |
| 2026-05-07 22:57 | -8.08941 | -34.93529 | 571 ft | 133 kts | 163° |
| 2026-05-07 22:58 | -8.09832 | -34.93248 | 397 ft | 140 kts | 161° |
| 2026-05-07 22:58 | -8.10770 | -34.92928 | 231 ft | 141 kts | 161° |
| 2026-05-07 22:58 | -8.11691 | -34.92629 | 68 ft | 134 kts | 161° |
| 2026-05-07 22:58 | -8.12493 | -34.92364 | 49 ft | 99 kts | 162° |
| 2026-05-07 22:59 | -8.12958 | -34.92211 | 50 ft | 41 kts | 162° |
| 2026-05-07 22:59 | -8.13148 | -34.92148 | 45 ft | 23 kts | 159° |
| 2026-05-07 22:59 | -8.13238 | -34.92076 | 48 ft | 13 kts | 133° |
| 2026-05-07 22:59 | -8.13281 | -34.92030 | 45 ft | 5 kts | 132° |
| 2026-05-07 23:00 | -8.13302 | -34.91999 | 46 ft | 5 kts | 110° |
| 2026-05-07 23:00 | -8.13301 | -34.91959 | 48 ft | 6 kts | 82° |
| 2026-05-07 23:00 | -8.13289 | -34.91914 | 47 ft | 6 kts | 73° |
| 2026-05-07 23:00 | -8.13281 | -34.91889 | 48 ft | 4 kts | 72° |
| 2026-05-07 23:01 | -8.13277 | -34.91877 | 49 ft | 0 kts | 72° |